createdAt,value
2023-01-03T00:10:44.929Z,99.0
2023-01-03T00:24:44.953Z,99.0
2023-01-03T00:38:44.949Z,99.0
2023-01-03T00:52:44.988Z,99.0
2023-01-03T01:06:44.969Z,99.0
2023-01-03T01:20:44.971Z,99.0
2023-01-03T01:34:44.976Z,99.0
2023-01-03T01:48:44.991Z,99.0
2023-01-03T02:02:45.166Z,99.0
2023-01-03T02:16:45.002Z,99.0
2023-01-03T02:30:45.042Z,99.0
2023-01-03T02:44:45.003Z,99.0
2023-01-03T02:58:45.146Z,99.0
2023-01-03T03:12:45.138Z,99.0
2023-01-03T03:26:45.149Z,99.0
2023-01-03T03:40:45.170Z,99.0
2023-01-03T03:54:45.195Z,99.0
2023-01-03T04:08:45.155Z,99.0
2023-01-03T04:22:45.194Z,99.0
2023-01-03T04:36:45.154Z,99.0
2023-01-03T04:50:45.170Z,99.0
2023-01-03T05:04:45.285Z,99.0
2023-01-03T05:18:45.286Z,99.0
2023-01-03T05:32:45.234Z,99.0
2023-01-03T05:46:45.240Z,99.0
2023-01-03T06:00:45.245Z,99.0
2023-01-03T06:14:45.252Z,99.0
2023-01-03T06:28:45.259Z,99.0
2023-01-03T06:43:45.259Z,99.0
2023-01-03T06:58:45.237Z,99.0
2023-01-03T07:13:45.254Z,99.0
2023-01-03T07:28:45.239Z,99.0
2023-01-03T07:43:45.278Z,99.0
2023-01-03T07:58:45.299Z,99.0
2023-01-03T08:13:45.289Z,99.0
2023-01-03T08:28:45.269Z,98.0
2023-01-03T08:43:45.284Z,96.0
2023-01-03T08:58:45.297Z,95.0
2023-01-03T09:13:45.380Z,94.0
2023-01-03T09:28:45.392Z,92.0
2023-01-03T09:43:45.385Z,92.0
2023-01-03T09:58:45.437Z,90.0
2023-01-03T10:13:45.444Z,88.0
2023-01-03T10:28:45.478Z,85.0
2023-01-03T10:43:45.420Z,85.0
2023-01-03T10:58:45.439Z,85.0
2023-01-03T11:13:45.455Z,85.0
2023-01-03T11:28:45.435Z,84.0
2023-01-03T11:43:45.463Z,82.0
2023-01-03T11:58:45.483Z,81.0
2023-01-03T12:13:45.495Z,81.0
2023-01-03T12:28:45.476Z,83.0
2023-01-03T12:43:45.499Z,84.0
2023-01-03T12:58:45.488Z,83.0
2023-01-03T13:13:45.485Z,83.0
2023-01-03T13:28:45.494Z,83.0
2023-01-03T13:43:45.482Z,84.0
2023-01-03T13:58:45.503Z,84.0
2023-01-03T14:13:45.514Z,85.0
2023-01-03T14:28:45.503Z,86.0
2023-01-03T14:43:45.527Z,87.0
2023-01-03T14:58:45.569Z,88.0
2023-01-03T15:13:45.565Z,90.0
2023-01-03T15:28:45.559Z,92.0
2023-01-03T15:44:45.575Z,94.0
2023-01-03T15:59:45.603Z,95.0
2023-01-03T16:14:45.576Z,96.0
2023-01-03T16:29:45.566Z,96.0
2023-01-03T16:43:45.675Z,96.0
2023-01-03T16:57:50.328Z,97.0
2023-01-03T17:11:45.630Z,97.0
2023-01-03T17:25:45.646Z,97.0
2023-01-03T17:39:45.706Z,97.0
2023-01-03T17:53:45.770Z,98.0
2023-01-03T18:07:45.761Z,97.0
2023-01-03T18:21:45.763Z,96.0
2023-01-03T18:35:45.747Z,97.0
2023-01-03T18:49:45.773Z,96.0
2023-01-03T19:03:45.809Z,97.0
2023-01-03T19:17:45.773Z,96.0
2023-01-03T19:31:45.798Z,96.0
2023-01-03T19:45:45.746Z,96.0
2023-01-03T19:59:45.800Z,96.0
2023-01-03T20:13:45.816Z,97.0
2023-01-03T20:27:45.833Z,97.0
2023-01-03T20:41:45.824Z,98.0
2023-01-03T20:55:45.833Z,97.0
2023-01-03T21:09:45.883Z,98.0
2023-01-03T21:23:45.907Z,98.0
2023-01-03T21:37:45.937Z,98.0
2023-01-03T21:51:45.996Z,98.0
2023-01-03T22:05:46.002Z,99.0
2023-01-03T22:19:46.024Z,99.0
2023-01-03T22:33:46.008Z,99.0
2023-01-03T22:47:46.036Z,99.0
2023-01-03T23:01:46.088Z,99.0
2023-01-03T23:15:46.069Z,99.0
2023-01-03T23:29:46.051Z,99.0
2023-01-03T23:43:46.095Z,99.0
2023-01-03T23:57:46.226Z,99.0
